Time;durP1;ratioP1;P1;durP2;ratioP2;P2;SDS_P1;SDS_P2;PMS_P1;PMS_P2;Temp;Humidity;BMP_temperature;BMP_pressure;BME280_temperature;BME280_humidity;BME280_pressure;Samples;Min_cycle;Max_cycle;Signal;HPM_P1;HPM_P2
2024/02/19 00:02:10;;;;;;;2.30;1.45;;;;;;;;;;5031745;28;20040;-64
2024/02/19 00:04:36;;;;;;;1.50;1.30;;;;;;;;;;5032852;28;20037;-65
2024/02/19 00:07:02;;;;;;;3.10;1.50;;;;;;;;;;5033175;28;20042;-65
2024/02/19 00:09:28;;;;;;;3.88;1.63;;;;;;;;;;5035329;28;20041;-65
2024/02/19 00:11:54;;;;;;;3.60;1.30;;;;;;;;;;5035697;28;20045;-65
2024/02/19 00:14:21;;;;;;;2.88;1.33;;;;;;;;;;5034932;28;20052;-65
2024/02/19 00:16:47;;;;;;;2.13;1.27;;;;;;;;;;5032560;28;20071;-65
2024/02/19 00:19:13;;;;;;;2.45;1.48;;;;;;;;;;5034396;28;20060;-65
2024/02/19 00:21:39;;;;;;;3.92;1.50;;;;;;;;;;5034233;28;20477;-65
2024/02/19 00:24:05;;;;;;;1.60;1.17;;;;;;;;;;5034273;28;20052;-65
2024/02/19 00:26:31;;;;;;;2.13;1.45;;;;;;;;;;5036609;28;20033;-64
2024/02/19 00:28:57;;;;;;;3.13;1.40;;;;;;;;;;5035133;28;20495;-65
2024/02/19 00:31:23;;;;;;;4.32;1.30;;;;;;;;;;5033573;28;20386;-65
2024/02/19 00:33:50;;;;;;;1.88;1.30;;;;;;;;;;5031112;28;20037;-65
2024/02/19 00:36:16;;;;;;;2.35;1.48;;;;;;;;;;5032959;28;20045;-65
2024/02/19 00:38:42;;;;;;;2.70;1.30;;;;;;;;;;5033705;28;20050;-65
2024/02/19 00:41:08;;;;;;;1.60;1.20;;;;;;;;;;5034999;28;20033;-65
2024/02/19 00:43:34;;;;;;;1.48;1.10;;;;;;;;;;5033108;28;20053;-64
2024/02/19 00:46:00;;;;;;;2.55;1.38;;;;;;;;;;5035426;28;20495;-64
2024/02/19 00:48:27;;;;;;;1.58;1.20;;;;;;;;;;5031636;28;20048;-64
2024/02/19 00:50:53;;;;;;;2.33;1.35;;;;;;;;;;5033758;28;20489;-65
2024/02/19 00:53:19;;;;;;;2.80;1.33;;;;;;;;;;5032767;28;20026;-64
2024/02/19 00:55:45;;;;;;;2.25;1.42;;;;;;;;;;5033993;28;20045;-64
2024/02/19 00:58:11;;;;;;;2.40;1.25;;;;;;;;;;5032430;28;20056;-64
2024/02/19 01:00:37;;;;;;;1.70;1.25;;;;;;;;;;5031093;28;20051;-64
2024/02/19 01:03:04;;;;;;;3.78;1.10;;;;;;;;;;5032664;28;20045;-65
2024/02/19 01:05:32;;;;;;;3.42;1.23;;;;;;;;;;5030701;28;20041;-66
2024/02/19 01:07:58;;;;;;;2.42;1.20;;;;;;;;;;5033393;28;20041;-64
2024/02/19 01:10:24;;;;;;;2.75;1.23;;;;;;;;;;5033585;28;20033;-64
2024/02/19 01:12:50;;;;;;;1.52;1.15;;;;;;;;;;5033137;28;20026;-64
2024/02/19 01:15:17;;;;;;;1.35;1.25;;;;;;;;;;5033805;28;20048;-65
2024/02/19 01:17:43;;;;;;;1.35;1.10;;;;;;;;;;5027643;28;20037;-63
2024/02/19 01:20:10;;;;;;;1.88;1.23;;;;;;;;;;5030979;28;20041;-66
2024/02/19 01:22:38;;;;;;;3.40;1.08;;;;;;;;;;5033101;28;20421;-65
2024/02/19 01:25:05;;;;;;;1.70;1.60;;;;;;;;;;5034073;28;20052;-65
2024/02/19 01:27:31;;;;;;;2.45;1.58;;;;;;;;;;5029413;28;20057;-65
2024/02/19 01:29:57;;;;;;;2.05;1.27;;;;;;;;;;5033001;28;20033;-65
2024/02/19 01:32:24;;;;;;;1.45;1.35;;;;;;;;;;5036317;28;20132;-64
2024/02/19 01:34:50;;;;;;;1.42;1.23;;;;;;;;;;5024678;28;20049;-64
2024/02/19 01:37:16;;;;;;;1.83;1.23;;;;;;;;;;5032039;28;20053;-65
2024/02/19 01:39:42;;;;;;;1.63;1.20;;;;;;;;;;5030503;28;20061;-66
2024/02/19 01:42:08;;;;;;;2.42;1.15;;;;;;;;;;5031805;28;20042;-64
2024/02/19 01:44:36;;;;;;;1.10;1.00;;;;;;;;;;5038590;28;20445;-64
2024/02/19 01:47:02;;;;;;;1.20;1.10;;;;;;;;;;5030181;28;20041;-64
2024/02/19 01:49:28;;;;;;;1.20;1.08;;;;;;;;;;5027893;28;20044;-65
2024/02/19 01:51:55;;;;;;;1.35;1.05;;;;;;;;;;5038201;28;20029;-64
2024/02/19 01:54:22;;;;;;;1.75;1.23;;;;;;;;;;5032046;28;20045;-66
2024/02/19 01:56:49;;;;;;;1.10;1.00;;;;;;;;;;5030838;28;20235;-64
2024/02/19 01:59:17;;;;;;;1.65;1.33;;;;;;;;;;5029240;28;20533;-64
2024/02/19 02:01:44;;;;;;;1.30;1.20;;;;;;;;;;5028510;28;20056;-64
2024/02/19 02:04:11;;;;;;;1.30;1.20;;;;;;;;;;5031643;28;20052;-65
2024/02/19 02:06:37;;;;;;;0.93;0.90;;;;;;;;;;5010598;28;20040;-65
2024/02/19 02:09:06;;;;;;;2.17;1.00;;;;;;;;;;5034183;28;20049;-65
2024/02/19 02:11:32;;;;;;;1.35;1.00;;;;;;;;;;5029622;28;20041;-65
2024/02/19 02:13:58;;;;;;;1.08;1.00;;;;;;;;;;5033229;28;20052;-65
2024/02/19 02:16:30;;;;;;;1.00;0.90;;;;;;;;;;5029669;28;20466;-64
2024/02/19 02:18:56;;;;;;;0.88;0.88;;;;;;;;;;5034910;28;20042;-65
2024/02/19 02:21:23;;;;;;;1.00;0.80;;;;;;;;;;5030552;28;20049;-65
2024/02/19 02:23:50;;;;;;;1.70;0.80;;;;;;;;;;5035560;28;20476;-65
2024/02/19 02:26:16;;;;;;;1.08;0.80;;;;;;;;;;5036000;28;20036;-65
2024/02/19 02:28:42;;;;;;;1.20;0.85;;;;;;;;;;5030354;28;20045;-64
2024/02/19 02:31:09;;;;;;;0.77;0.77;;;;;;;;;;5033126;28;20061;-65
2024/02/19 02:33:35;;;;;;;1.23;0.75;;;;;;;;;;5035655;28;20049;-64
2024/02/19 02:36:02;;;;;;;0.95;0.70;;;;;;;;;;5032112;28;20041;-65
2024/02/19 02:38:28;;;;;;;0.70;0.70;;;;;;;;;;5028697;28;20060;-65
2024/02/19 02:40:55;;;;;;;0.70;0.70;;;;;;;;;;5033198;28;20067;-66
2024/02/19 02:43:21;;;;;;;0.70;0.70;;;;;;;;;;5035197;28;20036;-65
2024/02/19 02:45:47;;;;;;;0.90;0.80;;;;;;;;;;5032102;28;20775;-64
2024/02/19 02:48:13;;;;;;;0.60;0.60;;;;;;;;;;5035129;28;20037;-65
2024/02/19 02:50:39;;;;;;;1.10;0.90;;;;;;;;;;5033522;28;20047;-66
2024/02/19 02:53:05;;;;;;;1.08;0.70;;;;;;;;;;5031223;28;20045;-67
2024/02/19 02:55:33;;;;;;;0.73;0.70;;;;;;;;;;5031871;28;20046;-67
2024/02/19 02:57:59;;;;;;;1.73;0.68;;;;;;;;;;5029489;28;20041;-66
2024/02/19 03:00:26;;;;;;;0.65;0.65;;;;;;;;;;5029349;28;20050;-65
2024/02/19 03:02:52;;;;;;;1.20;0.90;;;;;;;;;;5032699;28;20029;-65
2024/02/19 03:05:18;;;;;;;0.70;0.70;;;;;;;;;;5033521;28;20053;-65
2024/02/19 03:07:44;;;;;;;0.50;0.50;;;;;;;;;;5029882;28;20072;-66
2024/02/19 03:10:11;;;;;;;0.70;0.70;;;;;;;;;;5034669;28;20044;-64
2024/02/19 03:12:37;;;;;;;0.75;0.70;;;;;;;;;;5030317;28;20049;-65
2024/02/19 03:15:04;;;;;;;1.55;0.77;;;;;;;;;;5033410;28;20504;-65
2024/02/19 03:17:30;;;;;;;2.28;0.80;;;;;;;;;;5032842;28;20046;-67
2024/02/19 03:19:56;;;;;;;0.60;0.60;;;;;;;;;;5035596;28;20049;-66
2024/02/19 03:22:22;;;;;;;0.70;0.70;;;;;;;;;;5031957;28;20053;-66
2024/02/19 03:24:48;;;;;;;0.60;0.60;;;;;;;;;;5036213;28;20041;-66
2024/02/19 03:27:15;;;;;;;1.58;0.77;;;;;;;;;;5032628;28;20040;-66
2024/02/19 03:29:41;;;;;;;0.80;0.80;;;;;;;;;;5039317;28;20049;-67
2024/02/19 03:32:07;;;;;;;0.65;0.65;;;;;;;;;;5036128;28;20411;-66
2024/02/19 03:34:33;;;;;;;2.45;0.70;;;;;;;;;;5033760;28;20041;-66
2024/02/19 03:36:59;;;;;;;0.70;0.70;;;;;;;;;;5033974;28;20045;-67
2024/02/19 03:39:26;;;;;;;0.70;0.70;;;;;;;;;;5033171;28;20049;-67
2024/02/19 03:41:52;;;;;;;0.57;0.57;;;;;;;;;;5033051;28;20044;-66
2024/02/19 03:44:18;;;;;;;0.60;0.60;;;;;;;;;;5036126;28;20419;-68
2024/02/19 03:46:45;;;;;;;0.65;0.65;;;;;;;;;;5033622;28;20143;-66
2024/02/19 03:49:12;;;;;;;0.50;0.50;;;;;;;;;;5034484;28;20048;-66
2024/02/19 03:51:38;;;;;;;0.50;0.50;;;;;;;;;;5033577;28;20048;-66
2024/02/19 03:54:04;;;;;;;0.40;0.40;;;;;;;;;;5034925;28;20033;-65
2024/02/19 03:56:31;;;;;;;0.65;0.60;;;;;;;;;;5031394;28;20037;-65
2024/02/19 03:58:57;;;;;;;0.52;0.52;;;;;;;;;;5033987;28;20078;-65
2024/02/19 04:01:23;;;;;;;0.70;0.70;;;;;;;;;;5032185;28;20037;-65
2024/02/19 04:03:49;;;;;;;0.55;0.55;;;;;;;;;;5033200;28;20052;-65
2024/02/19 04:06:16;;;;;;;0.60;0.60;;;;;;;;;;5036143;28;20514;-66
2024/02/19 04:08:42;;;;;;;1.30;0.73;;;;;;;;;;5033632;28;20061;-65
2024/02/19 04:11:08;;;;;;;0.63;0.63;;;;;;;;;;5033542;28;20053;-64
2024/02/19 04:13:34;;;;;;;0.95;0.63;;;;;;;;;;5033073;28;20515;-65
2024/02/19 04:16:00;;;;;;;1.23;0.80;;;;;;;;;;5033776;28;20076;-66
2024/02/19 04:18:26;;;;;;;1.42;1.17;;;;;;;;;;5033090;28;20409;-66
2024/02/19 04:20:52;;;;;;;1.13;0.80;;;;;;;;;;5033380;28;20052;-66
2024/02/19 04:23:18;;;;;;;0.63;0.60;;;;;;;;;;5035559;28;20481;-66
2024/02/19 04:25:44;;;;;;;1.20;0.98;;;;;;;;;;5034786;28;20420;-67
2024/02/19 04:28:10;;;;;;;0.90;0.90;;;;;;;;;;5038712;28;20037;-68
2024/02/19 04:30:37;;;;;;;0.75;0.70;;;;;;;;;;5036348;28;20029;-66
2024/02/19 04:33:04;;;;;;;1.52;1.20;;;;;;;;;;5034432;28;20041;-66
2024/02/19 04:35:30;;;;;;;0.85;0.75;;;;;;;;;;5037147;28;20053;-66
2024/02/19 04:37:56;;;;;;;2.50;1.27;;;;;;;;;;5033266;28;20056;-66
2024/02/19 04:40:22;;;;;;;1.73;0.88;;;;;;;;;;5035193;28;20041;-66
2024/02/19 04:42:49;;;;;;;1.90;1.10;;;;;;;;;;5031252;28;20497;-66
2024/02/19 04:45:15;;;;;;;2.47;1.00;;;;;;;;;;5037210;28;20045;-66
2024/02/19 04:47:41;;;;;;;2.05;1.10;;;;;;;;;;5036652;28;20040;-67
2024/02/19 04:50:08;;;;;;;2.33;1.10;;;;;;;;;;5034892;28;20040;-67
2024/02/19 04:52:34;;;;;;;1.70;1.20;;;;;;;;;;5033272;28;20041;-68
2024/02/19 04:55:00;;;;;;;3.00;1.38;;;;;;;;;;5031144;28;20041;-66
2024/02/19 04:57:26;;;;;;;4.15;1.40;;;;;;;;;;5031723;28;20041;-66
2024/02/19 04:59:52;;;;;;;1.73;0.93;;;;;;;;;;5029399;28;20493;-66
2024/02/19 05:02:18;;;;;;;2.85;1.45;;;;;;;;;;5031810;28;20037;-67
2024/02/19 05:04:44;;;;;;;4.25;1.65;;;;;;;;;;5031253;28;20049;-66
2024/02/19 05:07:10;;;;;;;5.13;2.00;;;;;;;;;;5034463;28;20036;-67
2024/02/19 05:09:37;;;;;;;2.42;1.85;;;;;;;;;;5032500;28;20041;-66
2024/02/19 05:12:04;;;;;;;2.88;1.52;;;;;;;;;;5029794;28;20151;-66
2024/02/19 05:14:30;;;;;;;2.55;1.90;;;;;;;;;;5029019;28;20033;-67
2024/02/19 05:16:56;;;;;;;2.25;1.90;;;;;;;;;;5030435;28;20412;-66
2024/02/19 05:19:22;;;;;;;3.20;1.83;;;;;;;;;;5030927;28;20033;-65
2024/02/19 05:21:48;;;;;;;2.67;1.73;;;;;;;;;;5029597;28;20551;-66
2024/02/19 05:24:16;;;;;;;3.95;2.40;;;;;;;;;;5035240;28;20124;-67
2024/02/19 05:26:43;;;;;;;5.60;3.13;;;;;;;;;;5039178;28;20046;-66
2024/02/19 05:29:09;;;;;;;3.63;2.60;;;;;;;;;;5033625;28;20041;-67
2024/02/19 05:31:38;;;;;;;5.05;2.40;;;;;;;;;;5030335;28;20041;-66
2024/02/19 05:34:06;;;;;;;2.63;1.92;;;;;;;;;;5034034;28;20029;-66
2024/02/19 05:36:32;;;;;;;2.28;1.98;;;;;;;;;;5038368;28;20531;-66
2024/02/19 05:38:59;;;;;;;2.92;2.00;;;;;;;;;;5034665;28;20032;-66
2024/02/19 05:41:26;;;;;;;3.13;2.00;;;;;;;;;;5030372;28;20040;-66
2024/02/19 05:43:52;;;;;;;6.45;2.67;;;;;;;;;;5035004;28;20099;-66
2024/02/19 05:46:19;;;;;;;3.38;2.45;;;;;;;;;;5029160;28;20512;-65
2024/02/19 05:48:45;;;;;;;4.90;2.85;;;;;;;;;;5012389;28;20041;-65
2024/02/19 05:51:12;;;;;;;7.15;3.72;;;;;;;;;;5036081;28;20045;-64
2024/02/19 05:53:38;;;;;;;6.93;3.20;;;;;;;;;;5030730;28;20049;-65
2024/02/19 05:56:04;;;;;;;6.53;3.58;;;;;;;;;;5034336;28;20416;-65
2024/02/19 05:58:31;;;;;;;9.45;4.80;;;;;;;;;;5030348;28;20038;-65
2024/02/19 06:00:57;;;;;;;6.22;3.53;;;;;;;;;;5031066;28;20556;-65
2024/02/19 06:03:25;;;;;;;9.57;5.35;;;;;;;;;;5033280;28;20056;-66
2024/02/19 06:05:51;;;;;;;11.30;5.25;;;;;;;;;;5032027;28;20052;-66
2024/02/19 06:08:17;;;;;;;8.68;5.00;;;;;;;;;;5032924;28;20040;-65
2024/02/19 06:10:47;;;;;;;7.07;4.07;;;;;;;;;;5029330;28;20048;-64
2024/02/19 06:13:13;;;;;;;6.97;3.90;;;;;;;;;;5032216;28;20041;-64
2024/02/19 06:15:39;;;;;;;4.47;3.60;;;;;;;;;;5032942;28;20497;-64
2024/02/19 06:18:05;;;;;;;4.88;3.47;;;;;;;;;;5037213;28;20124;-64
2024/02/19 06:20:32;;;;;;;6.43;3.00;;;;;;;;;;5026539;28;20041;-64
2024/02/19 06:22:58;;;;;;;5.72;3.55;;;;;;;;;;5029483;28;20478;-64
2024/02/19 06:25:24;;;;;;;4.55;3.30;;;;;;;;;;5032697;28;20049;-64
2024/02/19 06:27:50;;;;;;;6.57;2.90;;;;;;;;;;5038746;28;20025;-64
2024/02/19 06:30:18;;;;;;;6.82;2.70;;;;;;;;;;5032832;28;20068;-64
2024/02/19 06:32:44;;;;;;;6.10;3.17;;;;;;;;;;5030237;28;20041;-63
2024/02/19 06:35:10;;;;;;;5.70;3.35;;;;;;;;;;5030595;28;20053;-64
2024/02/19 06:37:36;;;;;;;4.40;3.13;;;;;;;;;;5033528;28;20057;-66
2024/02/19 06:40:03;;;;;;;5.05;3.13;;;;;;;;;;5027104;28;20144;-64
2024/02/19 06:42:29;;;;;;;7.43;3.80;;;;;;;;;;5025607;28;20393;-64
2024/02/19 06:44:55;;;;;;;8.82;3.80;;;;;;;;;;5032626;28;20053;-65
2024/02/19 06:47:21;;;;;;;8.95;4.55;;;;;;;;;;5034182;28;20056;-65
2024/02/19 06:49:47;;;;;;;4.32;2.72;;;;;;;;;;5029368;28;20404;-65
2024/02/19 06:52:13;;;;;;;5.25;2.45;;;;;;;;;;5029185;28;20040;-67
2024/02/19 06:54:39;;;;;;;4.35;2.92;;;;;;;;;;5031852;28;20049;-65
2024/02/19 06:57:06;;;;;;;6.45;2.83;;;;;;;;;;5017874;28;20048;-66
2024/02/19 06:59:32;;;;;;;4.68;2.63;;;;;;;;;;4997507;28;20042;-65
2024/02/19 07:01:58;;;;;;;6.68;2.88;;;;;;;;;;5033926;28;20056;-63
2024/02/19 07:04:24;;;;;;;5.15;2.67;;;;;;;;;;5029297;28;20045;-64
2024/02/19 07:06:51;;;;;;;4.80;2.53;;;;;;;;;;5035291;28;20041;-64
2024/02/19 07:09:17;;;;;;;5.53;2.92;;;;;;;;;;5040029;28;20041;-64
2024/02/19 07:11:43;;;;;;;4.50;2.92;;;;;;;;;;5037253;28;20045;-64
2024/02/19 07:14:10;;;;;;;6.07;3.13;;;;;;;;;;5034642;28;20045;-64
2024/02/19 07:16:36;;;;;;;8.52;3.90;;;;;;;;;;5035029;28;20136;-63
2024/02/19 07:19:02;;;;;;;9.93;3.92;;;;;;;;;;5032798;28;20411;-63
2024/02/19 07:21:28;;;;;;;7.43;3.65;;;;;;;;;;5035483;28;20052;-63
2024/02/19 07:23:54;;;;;;;9.32;3.72;;;;;;;;;;5029356;28;20045;-64
2024/02/19 07:26:20;;;;;;;5.18;3.00;;;;;;;;;;5038360;28;20048;-64
2024/02/19 07:28:46;;;;;;;8.80;3.92;;;;;;;;;;5031563;28;20030;-63
2024/02/19 07:31:13;;;;;;;7.85;3.75;;;;;;;;;;5032255;28;20034;-64
2024/02/19 07:33:39;;;;;;;7.68;3.17;;;;;;;;;;5031432;28;20049;-64
2024/02/19 07:36:05;;;;;;;7.63;3.17;;;;;;;;;;5032873;28;20064;-64
2024/02/19 07:38:31;;;;;;;9.27;4.10;;;;;;;;;;5035602;28;20064;-64
2024/02/19 07:40:57;;;;;;;6.88;3.95;;;;;;;;;;5032336;28;20067;-66
2024/02/19 07:43:23;;;;;;;10.32;3.40;;;;;;;;;;5030370;28;20064;-64
2024/02/19 07:45:49;;;;;;;7.15;2.72;;;;;;;;;;5026966;28;20037;-64
2024/02/19 07:48:16;;;;;;;6.68;3.42;;;;;;;;;;5034366;28;20041;-64
2024/02/19 07:50:42;;;;;;;4.53;2.40;;;;;;;;;;5031845;28;20041;-65
2024/02/19 07:53:08;;;;;;;12.35;2.88;;;;;;;;;;5032204;28;20037;-64
2024/02/19 07:55:37;;;;;;;4.90;2.58;;;;;;;;;;5031111;28;20029;-64
2024/02/19 07:58:04;;;;;;;6.50;2.65;;;;;;;;;;5031964;28;20060;-64
2024/02/19 08:00:30;;;;;;;5.40;2.78;;;;;;;;;;5033042;28;20049;-63
2024/02/19 08:02:56;;;;;;;6.57;3.38;;;;;;;;;;5033336;28;20037;-64
2024/02/19 08:05:22;;;;;;;5.65;2.70;;;;;;;;;;5028992;28;20041;-64
2024/02/19 08:07:48;;;;;;;7.75;2.80;;;;;;;;;;5030627;28;20026;-64
2024/02/19 08:10:14;;;;;;;5.47;2.78;;;;;;;;;;5034941;28;20041;-63
2024/02/19 08:12:40;;;;;;;3.95;2.13;;;;;;;;;;5032893;28;20358;-63
2024/02/19 08:15:08;;;;;;;5.50;3.35;;;;;;;;;;5030242;28;20056;-63
2024/02/19 08:17:34;;;;;;;4.70;2.30;;;;;;;;;;5033091;28;20045;-65
2024/02/19 08:20:00;;;;;;;3.15;2.13;;;;;;;;;;5034534;28;20045;-64
2024/02/19 08:22:26;;;;;;;9.82;2.60;;;;;;;;;;5034617;28;20033;-63
2024/02/19 08:24:53;;;;;;;6.38;2.67;;;;;;;;;;5034271;28;20045;-66
2024/02/19 08:27:19;;;;;;;4.53;2.30;;;;;;;;;;5030346;28;20045;-63
2024/02/19 08:29:45;;;;;;;4.90;2.28;;;;;;;;;;5029609;28;20053;-63
2024/02/19 08:32:11;;;;;;;3.90;2.65;;;;;;;;;;5029686;28;20030;-64
2024/02/19 08:34:37;;;;;;;5.60;2.40;;;;;;;;;;5032627;28;20421;-64
2024/02/19 08:37:05;;;;;;;7.55;2.35;;;;;;;;;;5030168;28;20033;-63
2024/02/19 08:39:31;;;;;;;6.55;2.40;;;;;;;;;;5027571;28;20972;-63
2024/02/19 08:41:58;;;;;;;3.13;2.20;;;;;;;;;;5028588;28;20045;-64
2024/02/19 08:44:24;;;;;;;7.57;2.58;;;;;;;;;;5032311;28;20053;-63
2024/02/19 08:46:50;;;;;;;11.35;3.80;;;;;;;;;;5023691;28;20112;-63
2024/02/19 08:49:16;;;;;;;9.75;3.53;;;;;;;;;;5032622;28;20025;-63
2024/02/19 08:51:42;;;;;;;19.05;7.22;;;;;;;;;;5027471;28;20044;-63
2024/02/19 08:54:08;;;;;;;8.40;4.35;;;;;;;;;;5030762;28;20056;-63
2024/02/19 08:56:35;;;;;;;9.80;3.17;;;;;;;;;;5028676;28;20045;-64
2024/02/19 08:59:03;;;;;;;7.20;3.22;;;;;;;;;;5030911;28;20417;-63
2024/02/19 09:01:29;;;;;;;6.10;2.40;;;;;;;;;;5027891;28;20053;-64
2024/02/19 09:03:56;;;;;;;6.40;2.50;;;;;;;;;;5031034;28;20033;-63
2024/02/19 09:06:22;;;;;;;4.38;2.38;;;;;;;;;;5034315;28;20041;-64
2024/02/19 09:08:48;;;;;;;5.82;2.35;;;;;;;;;;5031869;28;20037;-64
2024/02/19 09:11:14;;;;;;;5.55;2.65;;;;;;;;;;5032319;28;20045;-63
2024/02/19 09:13:40;;;;;;;3.58;2.00;;;;;;;;;;5032834;28;20060;-63
2024/02/19 09:16:06;;;;;;;6.72;2.38;;;;;;;;;;5030632;28;20029;-63
2024/02/19 09:18:33;;;;;;;6.07;2.42;;;;;;;;;;5030503;28;20425;-63
2024/02/19 09:20:59;;;;;;;7.72;2.42;;;;;;;;;;5038642;28;20156;-63
2024/02/19 09:23:25;;;;;;;6.13;2.25;;;;;;;;;;5033052;28;20029;-64
2024/02/19 09:25:51;;;;;;;6.60;2.90;;;;;;;;;;5031531;28;20038;-63
2024/02/19 09:28:17;;;;;;;5.68;3.00;;;;;;;;;;5026315;28;20056;-64
2024/02/19 09:30:44;;;;;;;4.90;2.53;;;;;;;;;;5028344;28;20055;-64
2024/02/19 09:33:10;;;;;;;6.65;2.22;;;;;;;;;;5029436;28;20376;-64
2024/02/19 09:35:36;;;;;;;4.78;1.92;;;;;;;;;;5029386;28;21229;-63
2024/02/19 09:38:03;;;;;;;2.35;1.73;;;;;;;;;;5032356;28;20052;-64
2024/02/19 09:40:32;;;;;;;4.03;1.80;;;;;;;;;;5032707;28;20045;-64
2024/02/19 09:43:00;;;;;;;;;;;;;;;;;;5030185;28;20050;-64
2024/02/19 09:45:26;;;;;;;2.50;1.70;;;;;;;;;;5027945;28;19913;-63
2024/02/19 09:47:58;;;;;;;5.47;1.58;;;;;;;;;;5028636;28;20673;-64
2024/02/19 09:50:27;;;;;;;3.10;1.38;;;;;;;;;;5029028;28;20667;-63
2024/02/19 09:53:02;;;;;;;3.97;1.80;;;;;;;;;;5028081;28;20568;-63
2024/02/19 09:55:29;;;;;;;3.78;1.58;;;;;;;;;;5028720;28;20041;-65
2024/02/19 09:57:56;;;;;;;3.03;1.58;;;;;;;;;;5030711;28;20029;-64
2024/02/19 10:00:23;;;;;;;3.42;1.52;;;;;;;;;;5032420;28;20048;-64
2024/02/19 10:02:50;;;;;;;2.55;1.10;;;;;;;;;;5028769;28;20029;-63
2024/02/19 10:05:16;;;;;;;2.10;1.20;;;;;;;;;;5033781;28;20045;-64
2024/02/19 10:07:43;;;;;;;6.50;1.50;;;;;;;;;;5030931;28;20432;-64
2024/02/19 10:10:10;;;;;;;3.22;1.25;;;;;;;;;;5032054;28;20046;-63
2024/02/19 10:12:38;;;;;;;3.75;1.10;;;;;;;;;;5033166;28;20034;-64
2024/02/19 10:15:05;;;;;;;2.60;1.25;;;;;;;;;;5033478;28;20046;-66
2024/02/19 10:17:31;;;;;;;3.75;1.50;;;;;;;;;;5033849;28;20037;-65
2024/02/19 10:20:05;;;;;;;3.83;1.52;;;;;;;;;;5030258;28;20048;-64
2024/02/19 10:22:32;;;;;;;4.18;1.67;;;;;;;;;;5033189;28;20056;-64
2024/02/19 10:25:00;;;;;;;2.20;1.40;;;;;;;;;;5033560;28;20049;-64
2024/02/19 10:27:37;;;;;;;3.75;1.30;;;;;;;;;;5030212;28;20044;-63
2024/02/19 10:30:12;;;;;;;5.00;1.08;;;;;;;;;;5033475;28;20417;-64
2024/02/19 10:32:41;;;;;;;1.65;1.20;;;;;;;;;;5033905;28;20508;-64
2024/02/19 10:35:07;;;;;;;5.53;1.92;;;;;;;;;;5035804;28;20037;-64
2024/02/19 10:37:35;;;;;;;5.15;1.90;;;;;;;;;;5036424;28;20729;-64
2024/02/19 10:40:07;;;;;;;4.22;1.42;;;;;;;;;;5034960;28;20059;-63
2024/02/19 10:42:33;;;;;;;4.13;1.33;;;;;;;;;;5033370;28;20044;-63
2024/02/19 10:44:59;;;;;;;2.63;1.17;;;;;;;;;;5034783;28;20049;-63
2024/02/19 10:47:25;;;;;;;2.75;0.93;;;;;;;;;;5034750;28;20409;-63
2024/02/19 10:49:56;;;;;;;2.38;0.93;;;;;;;;;;5029368;28;20048;-62
2024/02/19 10:52:25;;;;;;;4.25;1.58;;;;;;;;;;5034397;28;20052;-63
2024/02/19 10:54:55;;;;;;;3.42;1.30;;;;;;;;;;5033918;28;20068;-63
2024/02/19 10:57:21;;;;;;;3.25;1.50;;;;;;;;;;5033407;28;20045;-64
2024/02/19 10:59:47;;;;;;;2.88;1.25;;;;;;;;;;5032724;28;20385;-64
2024/02/19 11:02:20;;;;;;;5.20;1.65;;;;;;;;;;5032361;28;20040;-64
2024/02/19 11:04:50;;;;;;;4.97;2.13;;;;;;;;;;5035272;28;20056;-62
2024/02/19 11:07:16;;;;;;;3.65;1.80;;;;;;;;;;5037407;28;20056;-63
2024/02/19 11:09:43;;;;;;;4.60;2.20;;;;;;;;;;5028814;28;20056;-64
2024/02/19 11:12:13;;;;;;;4.82;2.53;;;;;;;;;;5037029;28;20048;-63
2024/02/19 11:14:42;;;;;;;3.20;1.40;;;;;;;;;;5032490;28;20042;-63
2024/02/19 11:17:08;;;;;;;4.07;1.73;;;;;;;;;;5036986;28;20040;-63
2024/02/19 11:19:38;;;;;;;4.18;1.40;;;;;;;;;;5035071;28;20485;-64
2024/02/19 11:22:07;;;;;;;;;;;;;;;;;;5033733;28;20033;-64
2024/02/19 11:24:34;;;;;;;3.95;1.45;;;;;;;;;;5028155;28;19924;-63
2024/02/19 11:27:03;;;;;;;3.40;1.73;;;;;;;;;;5029848;28;20472;-63
2024/02/19 11:29:29;;;;;;;4.75;1.70;;;;;;;;;;5030246;28;20033;-63
2024/02/19 11:32:03;;;;;;;4.93;1.70;;;;;;;;;;5032638;28;20086;-65
2024/02/19 11:34:30;;;;;;;4.60;2.08;;;;;;;;;;5036359;28;20037;-64
2024/02/19 11:37:04;;;;;;;5.25;1.80;;;;;;;;;;5034308;28;20045;-64
2024/02/19 11:39:31;;;;;;;3.60;1.50;;;;;;;;;;5024553;28;20663;-64
2024/02/19 11:42:01;;;;;;;2.90;1.80;;;;;;;;;;5033915;28;20575;-64
2024/02/19 11:44:29;;;;;;;4.55;1.75;;;;;;;;;;5037414;28;20045;-64
2024/02/19 11:46:57;;;;;;;5.53;2.40;;;;;;;;;;5029999;28;20047;-64
2024/02/19 11:49:24;;;;;;;3.15;1.08;;;;;;;;;;5031991;28;20053;-64
2024/02/19 11:51:51;;;;;;;3.08;1.30;;;;;;;;;;5031361;28;20049;-64
2024/02/19 11:54:17;;;;;;;3.42;1.52;;;;;;;;;;5035010;28;20040;-65
2024/02/19 11:56:45;;;;;;;2.55;1.17;;;;;;;;;;5032310;28;20057;-64
2024/02/19 11:59:13;;;;;;;2.28;1.20;;;;;;;;;;5034219;28;20519;-64
2024/02/19 12:01:39;;;;;;;1.77;1.10;;;;;;;;;;5031425;28;20034;-63
2024/02/19 12:04:05;;;;;;;2.92;1.00;;;;;;;;;;5030925;28;20037;-64
2024/02/19 12:06:38;;;;;;;2.10;1.10;;;;;;;;;;5031273;28;20508;-63
2024/02/19 12:09:07;;;;;;;3.67;1.20;;;;;;;;;;5035128;28;20052;-64
2024/02/19 12:11:33;;;;;;;2.67;0.93;;;;;;;;;;5027210;28;20041;-63
2024/02/19 12:13:59;;;;;;;5.35;2.45;;;;;;;;;;5030730;28;20397;-64
2024/02/19 12:16:27;;;;;;;3.83;1.25;;;;;;;;;;5031638;28;20037;-62
2024/02/19 12:18:54;;;;;;;2.47;1.10;;;;;;;;;;5033251;28;20050;-63
2024/02/19 12:21:25;;;;;;;2.33;1.20;;;;;;;;;;5030789;28;20070;-64
2024/02/19 12:23:52;;;;;;;5.25;1.23;;;;;;;;;;5034256;28;20048;-65
2024/02/19 12:26:19;;;;;;;5.30;1.20;;;;;;;;;;5028674;28;20049;-65
2024/02/19 12:28:46;;;;;;;4.20;1.42;;;;;;;;;;5030808;28;20513;-64
2024/02/19 12:31:12;;;;;;;2.85;1.45;;;;;;;;;;5031033;28;20045;-63
2024/02/19 12:33:38;;;;;;;3.22;1.02;;;;;;;;;;5036913;28;20033;-63
2024/02/19 12:36:08;;;;;;;2.53;1.20;;;;;;;;;;5027411;28;20045;-64
2024/02/19 12:38:41;;;;;;;5.82;1.30;;;;;;;;;;5033591;28;20046;-65
2024/02/19 12:41:17;;;;;;;1.80;1.15;;;;;;;;;;5032613;28;20064;-64
2024/02/19 12:43:45;;;;;;;2.65;1.30;;;;;;;;;;5031875;28;20661;-65
2024/02/19 12:46:12;;;;;;;3.45;1.13;;;;;;;;;;5030092;28;20045;-65
2024/02/19 12:48:40;;;;;;;4.03;1.10;;;;;;;;;;5013953;28;20037;-64
2024/02/19 12:51:07;;;;;;;4.95;1.60;;;;;;;;;;5026543;28;20064;-64
2024/02/19 12:53:35;;;;;;;3.65;1.63;;;;;;;;;;5031863;28;20207;-61
2024/02/19 12:56:05;;;;;;;6.80;1.77;;;;;;;;;;5032867;28;20050;-63
2024/02/19 12:58:31;;;;;;;5.28;1.60;;;;;;;;;;5029068;28;20401;-62
2024/02/19 13:00:58;;;;;;;4.07;1.75;;;;;;;;;;5029720;28;20400;-63
2024/02/19 13:03:27;;;;;;;3.10;1.08;;;;;;;;;;5034161;28;20034;-63
2024/02/19 13:05:53;;;;;;;2.92;1.38;;;;;;;;;;5030786;28;20029;-63
2024/02/19 13:08:19;;;;;;;3.78;1.50;;;;;;;;;;5035069;28;20036;-63
2024/02/19 13:10:46;;;;;;;6.15;1.60;;;;;;;;;;5036618;28;20041;-65
2024/02/19 13:13:12;;;;;;;3.05;1.15;;;;;;;;;;5034258;28;20045;-64
2024/02/19 13:15:39;;;;;;;3.50;1.50;;;;;;;;;;5025593;28;20064;-63
2024/02/19 13:18:07;;;;;;;3.30;1.60;;;;;;;;;;5036804;28;20041;-63
2024/02/19 13:20:35;;;;;;;2.97;1.90;;;;;;;;;;5029953;28;20034;-64
2024/02/19 13:23:01;;;;;;;3.53;1.45;;;;;;;;;;5027229;28;20115;-63
2024/02/19 13:25:27;;;;;;;3.55;1.75;;;;;;;;;;5029546;28;20625;-63
2024/02/19 13:27:53;;;;;;;5.55;1.80;;;;;;;;;;5032396;28;20037;-63
2024/02/19 13:30:19;;;;;;;4.88;1.77;;;;;;;;;;5036694;28;20216;-64
2024/02/19 13:32:47;;;;;;;4.30;1.50;;;;;;;;;;5030951;28;20048;-62
2024/02/19 13:35:13;;;;;;;4.05;1.75;;;;;;;;;;5032386;28;20412;-63
2024/02/19 13:37:44;;;;;;;3.90;1.15;;;;;;;;;;5027399;28;20049;-64
2024/02/19 13:40:11;;;;;;;5.03;2.22;;;;;;;;;;5028206;28;20037;-63
2024/02/19 13:42:38;;;;;;;3.20;1.40;;;;;;;;;;5034610;28;20072;-63
2024/02/19 13:45:11;;;;;;;6.22;1.60;;;;;;;;;;5031189;28;20044;-63
2024/02/19 13:47:40;;;;;;;4.35;1.20;;;;;;;;;;5025557;28;20037;-63
2024/02/19 13:50:08;;;;;;;3.28;1.30;;;;;;;;;;5028873;28;20030;-65
2024/02/19 13:52:34;;;;;;;3.58;1.75;;;;;;;;;;5030607;28;20437;-64
2024/02/19 13:55:02;;;;;;;2.65;1.50;;;;;;;;;;5026978;28;20050;-63
2024/02/19 13:57:28;;;;;;;5.18;1.63;;;;;;;;;;5033942;28;20526;-63
2024/02/19 13:59:58;;;;;;;4.30;1.35;;;;;;;;;;5033037;28;20044;-63
2024/02/19 14:02:26;;;;;;;3.10;1.17;;;;;;;;;;5025011;28;20400;-64
2024/02/19 14:04:52;;;;;;;5.05;1.92;;;;;;;;;;5025580;28;20040;-63
2024/02/19 14:07:18;;;;;;;4.60;1.30;;;;;;;;;;5029201;28;20045;-63
2024/02/19 14:09:44;;;;;;;6.60;1.38;;;;;;;;;;5029644;28;20052;-63
2024/02/19 14:12:11;;;;;;;5.97;1.38;;;;;;;;;;5027429;28;20049;-64
2024/02/19 14:14:37;;;;;;;6.50;1.98;;;;;;;;;;5033918;28;20404;-64
2024/02/19 14:17:05;;;;;;;2.83;1.30;;;;;;;;;;5038594;28;20477;-64
2024/02/19 14:19:31;;;;;;;5.82;1.70;;;;;;;;;;5036348;28;20038;-63
2024/02/19 14:21:57;;;;;;;6.18;2.00;;;;;;;;;;5030777;28;20038;-63
2024/02/19 14:24:23;;;;;;;3.58;1.65;;;;;;;;;;5029949;28;20045;-63
2024/02/19 14:26:49;;;;;;;3.92;1.77;;;;;;;;;;5026276;28;20401;-64
2024/02/19 14:29:15;;;;;;;5.20;1.58;;;;;;;;;;5029208;28;20062;-64
2024/02/19 14:31:41;;;;;;;4.55;1.50;;;;;;;;;;5030973;28;20060;-63
2024/02/19 14:34:07;;;;;;;5.78;1.75;;;;;;;;;;5032820;28;20052;-64
2024/02/19 14:36:34;;;;;;;8.77;1.98;;;;;;;;;;5025135;28;20397;-65
2024/02/19 14:39:01;;;;;;;5.90;1.60;;;;;;;;;;5029761;28;20037;-64
2024/02/19 14:41:28;;;;;;;5.20;1.70;;;;;;;;;;5031485;28;20427;-64